Time;durP1;ratioP1;P1;durP2;ratioP2;P2;SDS_P1;SDS_P2;PMS_P1;PMS_P2;Temp;Humidity;BMP_temperature;BMP_pressure;BME280_temperature;BME280_humidity;BME280_pressure;Samples;Min_cycle;Max_cycle;Signal;HPM_P1;HPM_P2
2022/06/21 00:00:19;;;;;;;7.22;3.17;;;;;;;27.08;48.10;100646.00;5073534;28;20488;-77
2022/06/21 00:02:48;;;;;;;5.63;3.08;;;;;;;27.09;48.22;100644.97;5073183;28;20407;-77
2022/06/21 00:05:23;;;;;;;6.18;3.22;;;;;;;27.10;48.23;100646.72;5073657;28;20047;-78
2022/06/21 00:07:51;;;;;;;4.47;3.10;;;;;;;27.11;48.28;100652.97;5073370;28;20047;-78
2022/06/21 00:10:19;;;;;;;6.13;3.55;;;;;;;27.11;48.35;100652.97;5073417;28;20480;-77
2022/06/21 00:12:47;;;;;;;6.63;3.33;;;;;;;27.13;48.35;100655.50;5073007;28;20044;-77
2022/06/21 00:15:15;;;;;;;5.35;3.22;;;;;;;27.12;48.69;100651.94;5072970;28;20404;-77
2022/06/21 00:17:48;;;;;;;5.75;3.33;;;;;;;27.12;48.71;100651.94;5073162;28;20060;-77
2022/06/21 00:20:21;;;;;;;6.65;3.53;;;;;;;27.13;48.82;100656.34;5073486;28;20051;-77
2022/06/21 00:22:48;;;;;;;;;;;;;;;27.14;48.67;100654.47;5073352;28;20044;-77
2022/06/21 00:25:23;;;;;;;7.43;4.05;;;;;;;27.15;48.56;100653.44;5072906;28;20380;-77
2022/06/21 00:27:52;;;;;;;6.50;3.08;;;;;;;27.15;48.68;100658.88;5071363;28;20052;-77
2022/06/21 00:30:20;;;;;;;5.95;3.65;;;;;;;27.15;48.88;100653.44;5073304;28;20044;-77
2022/06/21 00:32:51;;;;;;;7.35;3.58;;;;;;;27.15;48.82;100654.28;5073466;28;20040;-77
2022/06/21 00:35:20;;;;;;;4.53;3.20;;;;;;;27.15;49.13;100648.84;5073693;28;20074;-78
2022/06/21 00:37:49;;;;;;;6.65;3.10;;;;;;;27.16;49.32;100649.69;5072573;28;20044;-77
2022/06/21 00:40:28;;;;;;;8.77;3.05;;;;;;;27.16;49.27;100644.25;5074060;28;20518;-78
2022/06/21 00:43:19;;;;;;;6.70;3.40;;;;;;;27.16;48.92;100633.38;5075791;28;20041;-78
2022/06/21 00:45:49;;;;;;;4.43;3.33;;;;;;;27.17;49.01;100643.22;5073449;28;20053;-77
2022/06/21 00:48:22;;;;;;;6.20;3.20;;;;;;;27.17;49.07;100635.06;5075499;28;20413;-77
2022/06/21 00:51:08;;;;;;;7.80;3.30;;;;;;;27.17;49.36;100638.63;5074809;28;20052;-77
2022/06/21 00:53:45;;;;;;;6.40;3.40;;;;;;;27.17;49.54;100635.91;5076879;28;20040;-77
2022/06/21 00:56:22;;;;;;;8.07;3.80;;;;;;;27.17;49.65;100629.63;5077355;28;20056;-78
2022/06/21 00:58:50;;;;;;;6.80;3.60;;;;;;;27.18;49.38;100636.75;5075780;28;20052;-78
2022/06/21 01:01:22;;;;;;;5.75;3.50;;;;;;;27.18;49.24;100634.03;5077145;28;20045;-82
2022/06/21 01:03:58;;;;;;;5.97;3.28;;;;;;;27.18;49.48;100634.03;5077411;28;20045;-82
2022/06/21 01:06:34;;;;;;;6.13;3.38;;;;;;;27.18;49.36;100634.03;5076396;28;20055;-79
2022/06/21 01:09:26;;;;;;;4.95;3.10;;;;;;;27.19;49.35;100635.75;5077132;28;20048;-78
2022/06/21 01:12:02;;;;;;;6.20;3.22;;;;;;;27.19;49.27;100635.75;5074687;28;20053;-78
2022/06/21 01:14:32;;;;;;;6.53;3.83;;;;;;;27.19;49.08;100635.75;5076626;28;20048;-78
2022/06/21 01:17:03;;;;;;;4.53;3.20;;;;;;;27.19;49.07;100638.47;5076754;28;20049;-78
2022/06/21 01:20:03;;;;;;;8.52;3.30;;;;;;;27.19;49.08;100642.00;5076461;28;20071;-78
2022/06/21 01:22:43;;;;;;;6.22;3.50;;;;;;;27.20;48.98;100642.84;5054343;28;20068;-78
2022/06/21 01:25:33;;;;;;;6.32;3.53;;;;;;;27.20;49.09;100645.56;5054389;28;20053;-78
2022/06/21 01:28:01;;;;;;;5.72;3.03;;;;;;;27.19;49.18;100650.16;5037534;28;20504;-79
2022/06/21 01:30:29;;;;;;;5.38;3.50;;;;;;;27.20;48.85;100668.16;5054292;28;20181;-78
2022/06/21 01:33:00;;;;;;;4.97;3.85;;;;;;;27.21;48.99;100669.00;5037172;28;20056;-78
2022/06/21 01:35:28;;;;;;;6.90;3.75;;;;;;;27.21;48.99;100660.84;5053761;28;20515;-78
2022/06/21 01:37:57;;;;;;;4.53;2.90;;;;;;;27.20;49.10;100668.16;5019590;28;20052;-78
2022/06/21 01:40:31;;;;;;;6.85;3.67;;;;;;;27.20;49.18;100668.16;5053716;28;20509;-78
2022/06/21 01:43:02;;;;;;;6.72;3.17;;;;;;;27.22;49.03;100670.66;5054235;28;20076;-77
2022/06/21 01:46:02;;;;;;;6.65;3.10;;;;;;;27.22;49.20;100662.50;5036303;28;20084;-77
2022/06/21 01:48:31;;;;;;;6.70;3.72;;;;;;;27.22;49.22;100663.34;5053622;28;20492;-80
2022/06/21 01:51:06;;;;;;;5.75;3.45;;;;;;;27.22;49.05;100657.09;5052261;28;20060;-81
2022/06/21 01:53:35;;;;;;;5.93;3.42;;;;;;;27.22;49.12;100671.50;5053646;28;20463;-79
2022/06/21 01:56:07;;;;;;;5.85;3.47;;;;;;;27.24;49.43;100668.63;5053560;28;20063;-79
2022/06/21 01:58:41;;;;;;;4.80;3.60;;;;;;;27.24;49.28;100674.91;5056443;28;20053;-79
2022/06/21 02:01:22;;;;;;;4.07;2.95;;;;;;;27.23;48.98;100666.94;5075885;28;20048;-79
2022/06/21 02:03:55;;;;;;;6.72;3.33;;;;;;;27.24;49.24;100661.31;5075694;28;20049;-81
2022/06/21 02:06:26;;;;;;;5.53;3.80;;;;;;;27.24;49.21;100666.75;5076127;28;20044;-81
2022/06/21 02:09:04;;;;;;;7.38;3.33;;;;;;;27.25;49.18;100662.16;5075858;28;20041;-80
2022/06/21 02:11:47;;;;;;;4.78;3.42;;;;;;;27.25;49.36;100663.00;5073604;28;20102;-81
2022/06/21 02:14:29;;;;;;;8.60;3.45;;;;;;;27.24;49.42;100664.03;5075680;28;20052;-81
2022/06/21 02:17:12;;;;;;;5.15;3.80;;;;;;;27.24;49.09;100658.59;5075792;28;20048;-81
2022/06/21 02:19:52;;;;;;;4.88;3.50;;;;;;;27.25;49.30;100659.44;5073669;28;20051;-82
2022/06/21 02:22:22;;;;;;;6.03;3.70;;;;;;;27.25;49.01;100656.72;5074687;28;20051;-80
2022/06/21 02:24:52;;;;;;;6.20;3.50;;;;;;;27.26;49.17;100666.53;5075545;28;20048;-80
2022/06/21 02:27:23;;;;;;;3.45;2.90;;;;;;;27.26;48.96;100661.94;5075482;28;20047;-80
2022/06/21 02:29:54;;;;;;;5.43;3.20;;;;;;;27.26;48.88;100661.94;5074352;28;20044;-80
2022/06/21 02:32:27;;;;;;;5.18;3.40;;;;;;;27.27;49.24;100663.66;5075272;28;20044;-80
2022/06/21 02:35:06;;;;;;;6.35;3.97;;;;;;;27.28;49.18;100667.22;5074441;28;20384;-80
2022/06/21 02:37:35;;;;;;;5.22;3.65;;;;;;;27.27;49.49;100663.66;5075153;28;20048;-81
2022/06/21 02:40:07;;;;;;;5.65;3.28;;;;;;;27.28;49.14;100665.34;5074834;28;20049;-82
2022/06/21 02:42:40;;;;;;;6.57;3.92;;;;;;;27.29;49.29;100663.47;5072846;28;20052;-81
2022/06/21 02:45:28;;;;;;;5.60;4.20;;;;;;;27.29;49.33;100674.34;5074642;28;20044;-81
2022/06/21 02:48:03;;;;;;;4.78;3.20;;;;;;;27.30;49.35;100667.84;5072761;28;20063;-81
2022/06/21 02:50:36;;;;;;;6.22;3.95;;;;;;;27.29;49.28;100663.47;5074846;28;20053;-81
2022/06/21 02:53:11;;;;;;;5.43;3.47;;;;;;;27.30;49.54;100667.84;5074453;28;20044;-81
2022/06/21 02:55:45;;;;;;;3.80;3.38;;;;;;;27.29;49.53;100668.91;5075086;28;20044;-80
2022/06/21 02:58:23;;;;;;;7.05;3.63;;;;;;;27.30;49.53;100670.56;5074557;28;20041;-81
2022/06/21 03:00:52;;;;;;;5.20;4.18;;;;;;;27.29;49.84;100666.19;5073649;28;20190;-82
2022/06/21 03:03:25;;;;;;;4.50;3.80;;;;;;;27.30;49.43;100668.69;5074441;28;20049;-83
2022/06/21 03:05:57;;;;;;;4.55;3.45;;;;;;;27.30;49.46;100673.28;5074678;28;20043;-82
2022/06/21 03:08:27;;;;;;;;;;;;;;;27.31;49.69;100666.84;5074971;28;20052;-81
2022/06/21 03:10:55;;;;;;;4.15;3.22;;;;;;;27.30;49.65;100676.84;5074030;28;19931;-82
2022/06/21 03:13:26;;;;;;;4.10;3.42;;;;;;;27.31;49.45;100669.56;5074804;28;20040;-82
2022/06/21 03:15:59;;;;;;;6.38;4.40;;;;;;;27.30;49.65;100673.28;5074109;28;20045;-80
2022/06/21 03:18:36;;;;;;;5.63;4.22;;;;;;;27.30;49.55;100676.84;5074530;28;20052;-80
2022/06/21 03:21:04;;;;;;;5.22;3.97;;;;;;;27.30;49.26;100673.28;5072341;28;20420;-80
2022/06/21 03:23:33;;;;;;;6.57;4.20;;;;;;;27.30;49.15;100685.00;5074582;28;20495;-81
2022/06/21 03:26:04;;;;;;;5.75;3.97;;;;;;;27.29;49.14;100679.75;5072057;28;20377;-81
2022/06/21 03:28:37;;;;;;;5.53;3.97;;;;;;;27.29;49.26;100671.63;5073274;28;20337;-80
2022/06/21 03:31:07;;;;;;;7.70;4.60;;;;;;;27.29;48.87;100671.63;5073746;28;20056;-81
2022/06/21 03:33:38;;;;;;;5.78;4.53;;;;;;;27.29;48.74;100671.63;5071884;28;20063;-81
2022/06/21 03:36:09;;;;;;;6.47;4.00;;;;;;;27.29;48.97;100674.34;5073984;28;20048;-80
2022/06/21 03:38:42;;;;;;;5.70;4.50;;;;;;;27.29;49.04;100685.19;5074354;28;20048;-81
2022/06/21 03:44:05;;;;;;;5.28;4.40;;;;;;;27.29;49.09;100671.63;5074259;28;20048;-81
2022/06/21 03:46:44;;;;;;;5.60;4.45;;;;;;;27.29;49.08;100683.31;5073394;28;20044;-81
2022/06/21 03:49:25;;;;;;;6.82;4.00;;;;;;;27.30;49.26;100689.59;5074034;28;20040;-81
2022/06/21 03:51:54;;;;;;;6.38;4.07;;;;;;;27.31;49.04;100685.88;5073211;28;20067;-81
2022/06/21 03:54:38;;;;;;;7.15;4.47;;;;;;;27.30;48.82;100690.44;5073172;28;20044;-81
2022/06/21 03:57:21;;;;;;;6.15;4.40;;;;;;;27.30;48.86;100689.59;5073368;28;20052;-82
2022/06/21 03:59:48;;;;;;;7.25;4.32;;;;;;;27.31;49.12;100680.44;5072066;28;20056;-82
2022/06/21 04:02:20;;;;;;;5.40;4.68;;;;;;;27.30;48.96;100685.00;5073321;28;20044;-82
2022/06/21 04:04:57;;;;;;;5.72;4.43;;;;;;;27.30;48.95;100687.72;5073727;28;20037;-82
2022/06/21 04:07:33;;;;;;;7.55;4.40;;;;;;;27.32;49.06;100693.00;5072475;28;20044;-81
2022/06/21 04:10:22;;;;;;;5.65;4.03;;;;;;;27.31;49.04;100691.31;5072043;28;20049;-81
2022/06/21 04:12:59;;;;;;;7.47;4.65;;;;;;;27.31;49.03;100691.31;5073461;28;20059;-82
2022/06/21 04:15:36;;;;;;;6.65;4.60;;;;;;;27.31;49.17;100692.16;5070566;28;20048;-82
2022/06/21 04:18:25;;;;;;;7.18;4.75;;;;;;;27.30;48.71;100695.88;5073611;28;20044;-82
2022/06/21 04:20:52;;;;;;;6.97;4.57;;;;;;;27.31;48.82;100702.19;5073366;28;20401;-82
2022/06/21 04:23:36;;;;;;;7.50;5.40;;;;;;;27.31;49.03;100699.47;5073278;28;20059;-82
2022/06/21 04:26:20;;;;;;;7.40;5.00;;;;;;;27.31;48.66;100702.19;5071095;28;20060;-81
2022/06/21 04:29:04;;;;;;;5.68;5.07;;;;;;;27.30;48.71;100706.75;5072864;28;20044;-81
2022/06/21 04:31:43;;;;;;;7.57;5.38;;;;;;;27.31;48.61;100707.63;5073470;28;20040;-81
2022/06/21 04:34:24;;;;;;;7.03;4.95;;;;;;;27.30;48.74;100700.47;5073603;28;20052;-81
2022/06/21 04:36:58;;;;;;;7.22;4.53;;;;;;;27.30;48.81;100698.59;5074209;28;20071;-81
2022/06/21 04:39:33;;;;;;;6.43;4.95;;;;;;;27.31;48.98;100708.47;5073909;28;20464;-81
2022/06/21 04:42:13;;;;;;;5.13;4.50;;;;;;;27.31;48.82;100711.19;5073162;28;20049;-81
2022/06/21 04:45:10;;;;;;;5.80;4.47;;;;;;;27.31;48.76;100708.47;5073135;28;20048;-81
2022/06/21 04:47:59;;;;;;;6.13;4.85;;;;;;;27.32;48.97;100714.72;5072543;28;20045;-81
2022/06/21 04:50:53;;;;;;;8.80;4.65;;;;;;;27.31;48.68;100716.63;5070724;28;20048;-81
2022/06/21 04:53:32;;;;;;;7.20;4.85;;;;;;;27.32;48.71;100717.44;5070351;28;20052;-80
2022/06/21 04:56:18;;;;;;;5.20;4.70;;;;;;;27.33;48.85;100713.69;5072389;28;20055;-80
2022/06/21 04:58:49;;;;;;;5.55;4.65;;;;;;;27.32;49.07;100715.56;5073302;28;20037;-81
2022/06/21 05:01:37;;;;;;;5.93;4.90;;;;;;;27.32;48.90;100714.72;5073073;28;20048;-80
2022/06/21 05:04:16;;;;;;;4.82;4.40;;;;;;;27.32;48.85;100715.56;5071885;28;20053;-80
2022/06/21 05:06:45;;;;;;;6.50;5.15;;;;;;;27.32;48.97;100714.72;5073224;28;20048;-80
2022/06/21 05:09:15;;;;;;;6.40;4.88;;;;;;;27.33;48.80;100716.41;5072554;28;20049;-81
2022/06/21 05:11:43;;;;;;;5.30;4.32;;;;;;;27.34;49.09;100718.09;5072452;28;20055;-81
2022/06/21 05:14:26;;;;;;;7.60;4.45;;;;;;;27.33;48.71;100708.25;5071452;28;20041;-80
2022/06/21 05:16:54;;;;;;;7.47;4.80;;;;;;;27.33;48.61;100716.41;5054447;28;20055;-81
2022/06/21 05:19:22;;;;;;;6.63;4.82;;;;;;;27.33;48.44;100721.84;5070773;28;20044;-80
2022/06/21 05:21:59;;;;;;;7.03;4.10;;;;;;;27.32;48.50;100729.16;5073730;28;20052;-80
2022/06/21 05:24:27;;;;;;;6.93;4.75;;;;;;;27.34;48.84;100739.84;5073131;28;20056;-80
2022/06/21 05:26:57;;;;;;;5.65;4.68;;;;;;;27.34;48.74;100742.56;5076090;28;20051;-80
2022/06/21 05:29:53;;;;;;;6.32;4.95;;;;;;;27.33;48.53;100746.31;5077202;28;20044;-80
2022/06/21 05:32:28;;;;;;;6.13;4.22;;;;;;;27.34;48.76;100746.13;5071764;28;20163;-83
2022/06/21 05:35:10;;;;;;;6.45;4.20;;;;;;;27.34;48.82;100743.41;5076360;28;20056;-80
2022/06/21 05:37:51;;;;;;;8.70;3.85;;;;;;;27.34;48.41;100748.84;5075720;28;20122;-80
2022/06/21 05:40:41;;;;;;;6.55;4.57;;;;;;;27.35;48.45;100753.25;5077274;28;20059;-80
2022/06/21 05:43:14;;;;;;;6.70;4.75;;;;;;;27.35;48.62;100747.00;5077797;28;20055;-80
2022/06/21 05:45:45;;;;;;;4.72;4.20;;;;;;;27.35;48.78;100747.00;5077349;28;20045;-80
2022/06/21 05:48:22;;;;;;;6.25;4.75;;;;;;;27.35;48.44;100757.88;5075641;28;20059;-81
2022/06/21 05:50:51;;;;;;;4.75;4.25;;;;;;;27.35;48.57;100750.53;5077413;28;20067;-80
2022/06/21 05:53:23;;;;;;;6.65;4.32;;;;;;;27.35;48.79;100757.88;5075448;28;20049;-80
2022/06/21 05:55:51;;;;;;;6.22;4.75;;;;;;;27.36;48.83;100759.53;5075506;28;20059;-80
2022/06/21 05:58:29;;;;;;;5.93;4.40;;;;;;;27.38;48.57;100768.34;5077757;28;20499;-80
2022/06/21 06:01:19;;;;;;;5.38;4.45;;;;;;;27.37;48.43;100763.94;5076043;28;20044;-80
2022/06/21 06:03:59;;;;;;;5.32;3.92;;;;;;;27.36;48.12;100764.97;5076423;28;20045;-80
2022/06/21 06:06:34;;;;;;;7.10;4.88;;;;;;;27.36;46.71;100773.13;5076145;28;20048;-79
2022/06/21 06:09:25;;;;;;;5.10;3.70;;;;;;;27.33;46.19;100787.09;5075698;28;20071;-80
2022/06/21 06:12:02;;;;;;;6.95;3.92;;;;;;;27.32;45.62;100775.38;5075140;28;20053;-79
2022/06/21 06:14:38;;;;;;;5.63;4.60;;;;;;;27.30;46.01;100761.13;5075408;28;20060;-81
2022/06/21 06:17:19;;;;;;;6.28;4.25;;;;;;;27.31;46.57;100773.69;5075780;28;20071;-79
2022/06/21 06:19:57;;;;;;;9.38;4.60;;;;;;;27.32;46.68;100769.94;5076846;28;20048;-80
2022/06/21 06:22:35;;;;;;;8.43;5.30;;;;;;;27.32;46.78;100764.50;5076633;28;20048;-81
2022/06/21 06:25:28;;;;;;;8.77;6.13;;;;;;;27.32;47.24;100763.66;5076670;28;20049;-81
2022/06/21 06:28:31;;;;;;;8.20;5.87;;;;;;;27.32;47.02;100769.09;5076210;28;20055;-80
2022/06/21 06:31:21;;;;;;;14.13;6.90;;;;;;;27.33;46.98;100768.06;5074567;28;20515;-81
2022/06/21 06:33:55;;;;;;;10.90;7.18;;;;;;;27.33;47.23;100777.06;5073981;28;20060;-81
2022/06/21 06:36:27;;;;;;;11.60;7.15;;;;;;;27.33;47.03;100787.94;5074545;28;20104;-79
2022/06/21 06:38:58;;;;;;;12.48;6.60;;;;;;;27.34;47.34;100778.75;5074321;28;20434;-80
2022/06/21 06:41:37;;;;;;;10.15;6.68;;;;;;;27.36;47.38;100770.41;5073986;28;20059;-80
2022/06/21 06:44:14;;;;;;;11.20;5.88;;;;;;;27.36;47.68;100775.84;5075177;28;20495;-81
2022/06/21 06:46:48;;;;;;;8.18;6.05;;;;;;;27.37;46.81;100777.53;5075074;28;20036;-80
2022/06/21 06:49:37;;;;;;;6.70;5.05;;;;;;;27.38;46.88;100778.38;5075010;28;20051;-81
2022/06/21 06:52:17;;;;;;;7.38;4.85;;;;;;;27.39;47.30;100774.63;5074334;28;20170;-80
2022/06/21 06:55:03;;;;;;;12.13;5.28;;;;;;;27.39;47.15;100766.47;5074323;28;20049;-81
2022/06/21 06:58:15;;;;;;;13.52;5.40;;;;;;;27.39;46.82;100772.78;5072648;28;20044;-80
2022/06/21 07:00:47;;;;;;;10.48;5.30;;;;;;;27.39;46.23;100770.06;5072102;28;20059;-80
2022/06/21 07:03:21;;;;;;;5.35;3.92;;;;;;;27.38;43.52;100773.78;5074587;28;20052;-80
2022/06/21 07:06:04;;;;;;;6.38;4.47;;;;;;;27.39;43.74;100772.78;5074596;28;20049;-80
2022/06/21 07:08:53;;;;;;;8.68;4.75;;;;;;;27.39;44.35;100775.50;5072634;28;20055;-80
2022/06/21 07:11:30;;;;;;;5.55;3.95;;;;;;;27.39;44.25;100769.19;5074703;28;20044;-83
2022/06/21 07:14:00;;;;;;;7.38;4.20;;;;;;;27.40;44.33;100757.31;5073220;28;20542;-82
2022/06/21 07:16:30;;;;;;;7.55;4.13;;;;;;;27.41;43.56;100753.53;5073824;28;20377;-81
2022/06/21 07:19:00;;;;;;;4.95;3.83;;;;;;;27.41;43.58;100751.66;5074082;28;20051;-82
2022/06/21 07:21:28;;;;;;;5.57;3.97;;;;;;;27.41;44.04;100756.25;5074058;28;20063;-82
2022/06/21 07:23:59;;;;;;;6.25;4.00;;;;;;;27.41;42.81;100748.09;5073608;28;20500;-83
2022/06/21 07:26:29;;;;;;;5.18;3.85;;;;;;;27.41;42.14;100748.09;5073856;28;20041;-81
2022/06/21 07:29:03;;;;;;;6.55;4.00;;;;;;;27.41;42.16;100753.53;5074009;28;20048;-82
2022/06/21 07:31:33;;;;;;;5.45;3.97;;;;;;;27.42;41.78;100750.63;5071391;28;20053;-78
2022/06/21 07:34:03;;;;;;;6.00;3.90;;;;;;;27.42;41.80;100757.94;5073884;28;20045;-80
2022/06/21 07:48:12;;;;;;;6.10;3.88;;;;;;;27.47;42.59;100750.09;5110592;27;20411;-79
2022/06/21 07:50:45;;;;;;;7.00;4.13;;;;;;;27.48;42.87;100754.47;5110909;28;20048;-79
2022/06/21 07:53:37;;;;;;;6.97;4.13;;;;;;;27.49;42.36;100742.56;5109659;28;20407;-79
2022/06/21 07:56:33;;;;;;;5.47;3.30;;;;;;;27.50;42.54;100755.13;5112105;28;20048;-79
2022/06/21 07:59:23;;;;;;;7.70;3.83;;;;;;;27.49;43.38;100751.56;5110039;28;20293;-79
2022/06/21 08:07:56;;;;;;;4.82;4.05;;;;;;;27.50;43.17;100741.53;5110443;28;20051;-79
2022/06/21 08:10:34;;;;;;;7.13;4.10;;;;;;;27.49;43.17;100727.09;5099396;28;20044;-79
2022/06/21 08:13:01;;;;;;;5.50;3.97;;;;;;;27.49;43.57;100721.66;5089832;28;20051;-79
2022/06/21 08:15:32;;;;;;;4.68;3.83;;;;;;;27.50;44.01;100719.78;5088249;28;20048;-79
2022/06/21 08:18:14;;;;;;;6.22;4.03;;;;;;;27.51;44.71;100710.63;5089656;28;20052;-79
2022/06/21 08:20:48;;;;;;;4.47;4.00;;;;;;;27.51;44.50;100716.88;5088547;28;20052;-78
2022/06/21 08:23:28;;;;;;;4.55;3.60;;;;;;;27.51;44.80;100711.44;5089562;28;20047;-79
2022/06/21 08:26:14;;;;;;;6.45;4.13;;;;;;;27.51;44.72;100718.78;5090092;28;20051;-79
2022/06/21 08:29:02;;;;;;;5.82;4.18;;;;;;;27.50;44.94;100723.34;5089508;28;20048;-79
2022/06/21 08:31:37;;;;;;;6.57;4.22;;;;;;;27.51;44.62;100727.78;5108127;28;20071;-79
2022/06/21 08:34:25;;;;;;;4.95;3.95;;;;;;;27.52;44.54;100726.72;5109862;28;20040;-79
2022/06/21 08:36:55;;;;;;;5.55;4.28;;;;;;;27.53;45.03;100725.69;5101531;28;20506;-79
2022/06/21 08:39:34;;;;;;;5.80;4.25;;;;;;;27.53;45.28;100720.25;5090034;28;20048;-79
2022/06/21 08:42:10;;;;;;;4.72;3.78;;;;;;;27.54;45.58;100707.50;5090363;28;20052;-79
2022/06/21 08:48:05;;;;;;;6.63;4.00;;;;;;;27.55;45.40;100718.19;5080776;28;20055;-80
2022/06/21 08:50:54;;;;;;;4.88;3.88;;;;;;;27.56;45.34;100709.00;5076028;28;20048;-79
2022/06/21 08:53:35;;;;;;;5.65;3.90;;;;;;;27.57;45.27;100713.41;5074816;28;20048;-79
2022/06/21 08:56:26;;;;;;;5.55;4.15;;;;;;;27.58;45.20;100722.41;5075805;28;20503;-79
2022/06/21 08:59:11;;;;;;;5.53;4.25;;;;;;;27.59;45.18;100726.81;5075854;28;20048;-80
2022/06/21 09:01:41;;;;;;;6.85;4.93;;;;;;;27.59;44.88;100730.38;5075528;28;20059;-80
2022/06/21 09:04:30;;;;;;;5.78;3.90;;;;;;;27.60;45.08;100728.50;5075532;28;20053;-81
2022/06/21 09:07:19;;;;;;;4.82;4.35;;;;;;;27.60;44.67;100731.22;5075903;28;20048;-80
2022/06/21 09:09:59;;;;;;;6.88;4.32;;;;;;;27.60;46.01;100726.63;5074963;28;20503;-80
2022/06/21 09:12:35;;;;;;;8.05;4.70;;;;;;;27.60;46.41;100726.63;5075998;28;20060;-78
2022/06/21 09:15:26;;;;;;;4.35;3.80;;;;;;;27.60;47.13;100725.78;5075075;28;20045;-78
2022/06/21 09:18:06;;;;;;;5.88;4.28;;;;;;;27.59;47.57;100716.78;5075451;28;20429;-79
2022/06/21 09:20:48;;;;;;;5.68;4.05;;;;;;;27.58;47.25;100715.06;5073857;28;20044;-80
2022/06/21 09:23:58;;;;;;;6.63;4.28;;;;;;;27.57;46.14;100716.13;5074977;28;20048;-78
2022/06/21 09:26:48;;;;;;;8.63;4.38;;;;;;;27.58;44.74;100712.34;5074437;28;20036;-78
2022/06/21 09:29:36;;;;;;;6.38;4.38;;;;;;;27.59;44.78;100715.94;5075241;28;20067;-79
2022/06/21 09:32:58;;;;;;;5.10;4.32;;;;;;;27.58;44.85;100701.47;5075169;28;20055;-79
2022/06/21 09:35:57;;;;;;;10.20;4.97;;;;;;;27.58;46.12;100706.91;5032755;28;20056;-83
2022/06/21 09:38:46;;;;;;;6.85;4.25;;;;;;;27.59;48.20;100714.06;5028677;28;20524;-79
2022/06/21 09:41:17;;;;;;;5.22;4.15;;;;;;;27.58;47.64;100711.53;5032627;28;20064;-79
2022/06/21 09:44:14;;;;;;;8.10;4.65;;;;;;;27.57;46.88;100704.41;5032491;28;20053;-81
2022/06/21 09:46:53;;;;;;;5.70;4.07;;;;;;;27.56;47.90;100700.00;5032796;28;20200;-80
2022/06/21 09:49:29;;;;;;;9.45;4.57;;;;;;;27.57;46.54;100698.97;5032908;28;20062;-79
2022/06/21 09:52:04;;;;;;;5.55;4.13;;;;;;;27.58;45.60;100695.19;5033046;28;20566;-79
2022/06/21 09:54:38;;;;;;;7.05;4.75;;;;;;;27.58;46.94;100693.31;5032755;28;20080;-79
2022/06/21 09:57:14;;;;;;;5.72;4.43;;;;;;;27.59;45.91;100689.59;5032194;28;20049;-79
2022/06/21 10:00:08;;;;;;;5.28;4.35;;;;;;;27.59;47.30;100686.88;5031699;28;20056;-79
2022/06/21 10:03:06;;;;;;;6.30;4.30;;;;;;;27.59;47.20;100694.19;5020249;28;20050;-79
2022/06/21 10:05:53;;;;;;;4.70;4.30;;;;;;;27.59;46.46;100676.00;5031786;28;20056;-78
2022/06/21 10:08:43;;;;;;;6.18;4.53;;;;;;;27.60;46.26;100679.56;5037071;28;20072;-78
2022/06/21 10:11:17;;;;;;;9.18;4.55;;;;;;;27.61;47.73;100683.94;5073071;28;20052;-78
2022/06/21 10:14:14;;;;;;;6.28;4.40;;;;;;;27.63;44.98;100684.63;5073821;28;20055;-78
2022/06/21 10:16:56;;;;;;;7.70;4.95;;;;;;;27.67;45.75;100675.06;5074062;28;20047;-78
2022/06/21 10:19:36;;;;;;;4.93;4.43;;;;;;;27.68;46.74;100674.00;5073914;28;20052;-78
2022/06/21 10:22:24;;;;;;;7.25;4.57;;;;;;;27.68;45.59;100674.00;5072068;28;20048;-78
2022/06/21 10:25:10;;;;;;;7.63;4.78;;;;;;;27.69;46.42;100677.56;5073847;28;20056;-78
2022/06/21 10:27:52;;;;;;;6.28;4.40;;;;;;;27.68;47.27;100668.56;5073817;28;20055;-78
2022/06/21 10:30:51;;;;;;;6.93;4.60;;;;;;;27.68;46.94;100675.88;5073718;28;20063;-78
2022/06/21 10:33:29;;;;;;;6.47;4.40;;;;;;;27.67;45.72;100679.63;5039678;28;20056;-77
2022/06/21 10:36:04;;;;;;;8.23;4.78;;;;;;;27.71;43.59;100676.34;5073632;28;20044;-77
2022/06/21 10:38:38;;;;;;;5.25;4.57;;;;;;;27.74;44.18;100664.25;5072441;28;20045;-77
2022/06/21 10:41:30;;;;;;;5.40;4.90;;;;;;;27.77;44.36;100669.31;5070790;28;20044;-77
2022/06/21 10:44:19;;;;;;;4.93;4.30;;;;;;;27.77;44.67;100655.72;5057805;28;20420;-78
2022/06/21 10:46:50;;;;;;;6.35;4.30;;;;;;;27.80;43.32;100658.91;5052299;28;20286;-78
2022/06/21 10:49:45;;;;;;;6.05;4.65;;;;;;;27.87;42.36;100658.13;5053980;28;20473;-77
2022/06/21 10:52:24;;;;;;;7.28;4.60;;;;;;;27.93;42.47;100654.66;5053757;28;20056;-77
2022/06/21 10:55:06;;;;;;;6.05;4.10;;;;;;;27.95;42.61;100649.84;5053756;28;20049;-77
2022/06/21 10:57:39;;;;;;;8.63;4.63;;;;;;;27.93;43.97;100649.19;5035751;28;20049;-79
2022/06/21 11:03:35;;;;;;;7.25;5.07;;;;;;;27.88;44.83;100648.94;5011321;28;20049;-80
2022/06/21 11:06:08;;;;;;;6.57;4.80;;;;;;;27.85;45.53;100642.00;5012473;28;20065;-80
2022/06/21 11:09:10;;;;;;;5.47;4.97;;;;;;;27.84;45.92;100633.00;5012458;28;20058;-81
2022/06/21 11:11:55;;;;;;;6.55;4.60;;;;;;;27.82;46.42;100631.50;5012604;28;20050;-80
2022/06/21 11:14:39;;;;;;;9.27;4.80;;;;;;;27.80;45.99;100630.88;4995930;28;20069;-81
2022/06/21 11:17:21;;;;;;;7.35;5.00;;;;;;;27.81;46.39;100627.09;5012309;28;20073;-80
2022/06/21 11:20:07;;;;;;;5.95;4.40;;;;;;;27.79;46.64;100624.59;5012344;28;20448;-82
2022/06/21 11:22:51;;;;;;;8.90;4.78;;;;;;;27.79;46.08;100623.72;5012610;28;20054;-81
2022/06/21 11:25:29;;;;;;;6.15;4.80;;;;;;;27.78;46.06;100624.75;4996490;28;20049;-82
2022/06/21 11:28:09;;;;;;;5.40;4.20;;;;;;;27.79;45.94;100623.72;4996461;28;20053;-81
2022/06/21 11:30:52;;;;;;;5.25;4.13;;;;;;;27.79;46.75;100621.00;5013158;28;20054;-82
2022/06/21 11:33:27;;;;;;;6.93;4.20;;;;;;;27.78;46.91;100622.03;5019429;28;20404;-80
2022/06/21 11:36:08;;;;;;;5.85;4.50;;;;;;;27.78;46.75;100622.88;5053245;28;20072;-80
2022/06/21 11:39:01;;;;;;;5.53;4.90;;;;;;;27.78;47.10;100612.00;5054498;28;20491;-80
2022/06/21 11:44:43;;;;;;;6.20;4.45;;;;;;;27.80;47.61;100606.38;5053874;28;20049;-81
2022/06/21 11:47:20;;;;;;;8.07;5.65;;;;;;;27.79;47.48;100601.94;5053271;28;20063;-80
2022/06/21 11:50:20;;;;;;;9.48;5.43;;;;;;;27.80;47.64;100600.94;5052736;28;20401;-81
2022/06/21 11:53:07;;;;;;;10.95;6.25;;;;;;;27.80;47.96;100595.50;5053602;28;20067;-80
2022/06/21 11:55:51;;;;;;;14.10;6.65;;;;;;;27.80;47.74;100582.75;5053982;28;20049;-80
2022/06/21 11:58:55;;;;;;;13.88;6.35;;;;;;;27.82;47.75;100590.69;5052592;28;20048;-80
2022/06/21 12:01:49;;;;;;;13.38;6.30;;;;;;;27.80;47.73;100584.63;5053446;28;20484;-80
2022/06/21 12:04:40;;;;;;;17.65;6.93;;;;;;;27.81;47.89;100586.28;5053494;28;20045;-80
2022/06/21 12:07:49;;;;;;;14.18;7.63;;;;;;;27.81;47.72;100581.69;5035232;28;20053;-79
2022/06/21 12:10:20;;;;;;;15.88;7.75;;;;;;;27.81;47.97;100575.41;5052865;28;20364;-80
2022/06/21 12:13:07;;;;;;;16.33;7.53;;;;;;;27.81;47.34;100570.81;5053112;28;20404;-81
2022/06/21 12:16:04;;;;;;;20.00;7.82;;;;;;;27.82;47.26;100568.94;5052471;28;20380;-79
2022/06/21 12:18:35;;;;;;;14.55;7.32;;;;;;;27.82;46.93;100563.50;5053070;28;20045;-80
2022/06/21 12:21:13;;;;;;;10.18;6.75;;;;;;;27.82;47.30;100561.59;5053217;28;20056;-79
2022/06/21 12:23:47;;;;;;;17.65;7.03;;;;;;;27.84;47.81;100558.72;5056207;28;20053;-79
2022/06/21 12:26:18;;;;;;;15.60;6.95;;;;;;;27.84;47.90;100566.88;5056987;28;20049;-79
2022/06/21 12:28:45;;;;;;;14.45;6.75;;;;;;;27.83;47.86;100554.28;5055873;28;20049;-79
2022/06/21 12:31:26;;;;;;;18.02;7.30;;;;;;;27.83;47.92;100552.44;5058173;28;20052;-79
2022/06/21 12:34:05;;;;;;;13.80;7.00;;;;;;;27.84;47.92;100550.56;5056000;28;20052;-80
2022/06/21 12:36:57;;;;;;;15.80;6.80;;;;;;;27.85;47.75;100554.94;5056664;28;20122;-79
2022/06/21 12:39:28;;;;;;;14.50;7.22;;;;;;;27.84;47.80;100551.38;5057307;28;20068;-79
2022/06/21 12:42:14;;;;;;;10.00;6.75;;;;;;;27.85;47.75;100554.94;5056109;28;20049;-80
2022/06/21 12:44:56;;;;;;;14.88;6.55;;;;;;;27.85;46.78;100547.63;5055982;28;20404;-79
2022/06/21 12:47:30;;;;;;;12.25;6.53;;;;;;;27.85;46.77;100541.34;5055580;28;20053;-79